Time;durP1;ratioP1;P1;durP2;ratioP2;P2;SDS_P1;SDS_P2;PMS_P1;PMS_P2;Temp;Humidity;BMP_temperature;BMP_pressure;BME280_temperature;BME280_humidity;BME280_pressure;Samples;Min_cycle;Max_cycle;Signal;HPM_P1;HPM_P2
2023/08/10 00:01:30;;;;;;;4.90;2.70;;;;;;;13.76;100.00;100541.91;181190;1259;43833;-89
2023/08/10 00:05:33;;;;;;;4.90;2.10;;;;;;;13.75;100.00;100547.38;181086;1260;44021;-88
2023/08/10 00:09:36;;;;;;;2.80;2.10;;;;;;;13.65;100.00;100547.92;181139;1258;58106;-87
2023/08/10 00:13:39;;;;;;;1.80;1.20;;;;;;;13.59;100.00;100548.79;181122;1259;43818;-89
2023/08/10 00:17:43;;;;;;;3.70;2.00;;;;;;;13.59;100.00;100549.59;181135;1258;43800;-89
2023/08/10 00:21:46;;;;;;;2.20;1.30;;;;;;;13.58;100.00;100551.71;181206;1258;44035;-89
2023/08/10 00:25:49;;;;;;;1.80;1.60;;;;;;;13.58;100.00;100553.91;181035;1258;43810;-89
2023/08/10 00:29:53;;;;;;;7.30;1.70;;;;;;;13.45;100.00;100555.88;181002;1258;60705;-88
2023/08/10 00:33:56;;;;;;;2.40;1.80;;;;;;;13.44;100.00;100558.83;181118;1258;44047;-89
2023/08/10 00:38:00;;;;;;;3.40;2.00;;;;;;;13.45;100.00;100559.65;181111;1258;43879;-89
2023/08/10 00:42:03;;;;;;;2.50;1.90;;;;;;;13.45;100.00;100557.56;181187;1260;43974;-89
2023/08/10 00:46:10;;;;;;;3.70;1.30;;;;;;;13.41;100.00;100558.14;181324;1258;43969;-89
2023/08/10 00:50:13;;;;;;;1.50;1.40;;;;;;;13.39;100.00;100558.94;181115;1259;59216;-87
2023/08/10 00:54:17;;;;;;;2.60;2.40;;;;;;;13.31;100.00;100553.71;181174;1258;44897;-87
2023/08/10 00:58:21;;;;;;;5.80;2.40;;;;;;;13.28;100.00;100553.80;181172;1259;44054;-86
2023/08/10 01:02:24;;;;;;;2.80;1.30;;;;;;;13.23;100.00;100563.11;181058;1258;43826;-89
2023/08/10 01:06:49;;;;;;;4.30;1.80;;;;;;;13.12;100.00;100563.76;181176;1259;43813;-88
2023/08/10 01:11:20;;;;;;;7.20;1.80;;;;;;;13.04;100.00;100565.25;181169;1258;59496;-89
2023/08/10 01:15:43;;;;;;;3.10;1.70;;;;;;;13.00;100.00;100567.63;181316;1258;43917;-89
2023/08/10 01:19:48;;;;;;;2.70;1.70;;;;;;;13.05;100.00;100573.29;181076;1259;43779;-87
2023/08/10 01:23:54;;;;;;;4.10;1.90;;;;;;;13.02;100.00;100573.16;181034;1259;43838;-88
2023/08/10 01:27:58;;;;;;;2.30;1.70;;;;;;;13.03;100.00;100578.66;181012;1260;43852;-88
2023/08/10 01:32:02;;;;;;;2.20;1.70;;;;;;;13.05;100.00;100584.02;181076;1259;60245;-88
2023/08/10 01:36:06;;;;;;;3.80;1.70;;;;;;;12.99;100.00;100583.46;181079;1259;44345;-88
2023/08/10 01:40:12;;;;;;;2.90;2.30;;;;;;;12.99;100.00;100586.98;181111;1258;43804;-88
2023/08/10 01:44:15;;;;;;;6.30;2.20;;;;;;;12.98;100.00;100590.98;181182;1260;44112;-87
2023/08/10 01:48:24;;;;;;;3.50;1.90;;;;;;;13.00;100.00;100586.52;181285;1259;43778;-87
2023/08/10 01:52:31;;;;;;;4.30;1.90;;;;;;;13.04;100.00;100586.00;181097;1260;59588;-87
2023/08/10 01:56:34;;;;;;;2.30;1.70;;;;;;;13.05;100.00;100587.20;181114;1258;43750;-87
2023/08/10 02:00:38;;;;;;;2.80;1.40;;;;;;;13.08;100.00;100583.38;181095;1260;43933;-87
2023/08/10 02:04:41;;;;;;;2.70;1.90;;;;;;;13.07;100.00;100589.16;181117;1259;44160;-87
2023/08/10 02:08:44;;;;;;;5.20;1.70;;;;;;;13.03;100.00;100590.18;181248;1260;44062;-86
2023/08/10 02:12:47;;;;;;;2.20;1.10;;;;;;;13.03;100.00;100590.94;180905;1260;58266;-87
2023/08/10 02:16:51;;;;;;;3.60;1.90;;;;;;;12.96;100.00;100590.55;181068;1258;43889;-87
2023/08/10 02:20:54;;;;;;;3.20;1.80;;;;;;;12.93;100.00;100590.19;181035;1260;44035;-87
2023/08/10 02:24:57;;;;;;;4.20;2.10;;;;;;;12.88;100.00;100592.20;180925;1259;44381;-87
2023/08/10 02:29:00;;;;;;;3.10;1.40;;;;;;;12.80;100.00;100591.43;180937;1259;43773;-87
2023/08/10 02:33:05;;;;;;;2.70;1.70;;;;;;;12.78;100.00;100592.50;181063;1260;59500;-87
2023/08/10 02:37:08;;;;;;;3.40;1.70;;;;;;;12.74;100.00;100592.35;180918;1260;43715;-87
2023/08/10 02:41:11;;;;;;;2.40;1.50;;;;;;;12.69;100.00;100599.50;181011;1260;43821;-87
2023/08/10 02:45:14;;;;;;;7.40;1.60;;;;;;;12.66;100.00;100593.90;180952;1260;43990;-87
2023/08/10 02:49:18;;;;;;;2.90;1.70;;;;;;;12.62;100.00;100596.17;181120;1260;43786;-87
2023/08/10 02:53:21;;;;;;;2.00;1.10;;;;;;;12.62;100.00;100601.34;181081;1258;59852;-88
2023/08/10 02:57:24;;;;;;;3.10;2.00;;;;;;;12.62;100.00;100606.55;181067;1259;44059;-88
2023/08/10 03:01:27;;;;;;;5.80;2.90;;;;;;;12.58;100.00;100606.16;180967;1260;43837;-88
2023/08/10 03:05:31;;;;;;;4.00;1.30;;;;;;;12.56;100.00;100609.49;180957;1260;44282;-88
2023/08/10 03:09:34;;;;;;;1.90;1.30;;;;;;;12.58;100.00;100608.60;181007;1260;43694;-88
2023/08/10 03:13:38;;;;;;;2.80;1.70;;;;;;;12.58;100.00;100614.31;180957;1262;59391;-87
2023/08/10 03:17:42;;;;;;;4.00;1.40;;;;;;;12.51;100.00;100617.20;181170;1259;43881;-88
2023/08/10 03:21:46;;;;;;;4.30;2.10;;;;;;;12.50;100.00;100620.89;181013;1260;43764;-87
2023/08/10 03:25:49;;;;;;;2.90;1.50;;;;;;;12.51;100.00;100621.66;180975;1260;43861;-87
2023/08/10 03:29:53;;;;;;;4.00;1.60;;;;;;;12.51;100.00;100627.36;181062;1260;43809;-88
2023/08/10 03:33:56;;;;;;;24.80;2.10;;;;;;;12.53;100.00;100627.20;180871;1258;57271;-88
2023/08/10 03:38:00;;;;;;;2.20;1.60;;;;;;;12.55;100.00;100630.75;180881;1261;44487;-88
2023/08/10 03:42:03;;;;;;;2.70;1.80;;;;;;;12.58;100.00;100634.45;181031;1258;43865;-88
2023/08/10 03:46:08;;;;;;;1.20;1.00;;;;;;;12.55;100.00;100638.55;180969;1261;43919;-88
2023/08/10 03:50:11;;;;;;;2.60;2.10;;;;;;;12.55;100.00;100644.27;181043;1259;43946;-88
2023/08/10 03:54:14;;;;;;;9.50;2.60;;;;;;;12.53;100.00;100653.70;180982;1259;59597;-88
2023/08/10 03:58:18;;;;;;;3.70;1.40;;;;;;;12.55;100.00;100653.89;180931;1262;43756;-88
2023/08/10 04:02:22;;;;;;;5.00;1.90;;;;;;;12.62;100.00;100657.77;180939;1260;43952;-88
2023/08/10 04:06:25;;;;;;;7.80;2.20;;;;;;;12.69;100.00;100663.72;180956;1262;44835;-88
2023/08/10 04:10:30;;;;;;;3.80;1.90;;;;;;;12.81;100.00;100667.52;181130;1260;43814;-89
2023/08/10 04:14:33;;;;;;;4.10;2.10;;;;;;;13.01;100.00;100670.10;180999;1260;58384;-88
2023/08/10 04:18:37;;;;;;;5.70;2.10;;;;;;;13.21;100.00;100667.14;180981;1260;43800;-88
2023/08/10 04:22:40;;;;;;;2.30;1.90;;;;;;;13.47;100.00;100666.93;180938;1261;43971;-89
2023/08/10 04:26:45;;;;;;;4.40;2.00;;;;;;;13.91;100.00;100668.53;180937;1257;44412;-88
2023/08/10 04:30:48;;;;;;;3.20;1.70;;;;;;;14.01;100.00;100671.75;181032;1260;43773;-89
2023/08/10 04:34:52;;;;;;;2.50;1.70;;;;;;;13.92;100.00;100677.71;180961;1260;59568;-88
2023/08/10 04:38:56;;;;;;;13.50;11.70;;;;;;;13.96;100.00;100676.88;181023;1259;44125;-88
2023/08/10 04:43:00;;;;;;;3.40;2.20;;;;;;;14.14;100.00;100675.78;180952;1260;43799;-88
2023/08/10 04:47:04;;;;;;;5.60;2.60;;;;;;;14.38;100.00;100685.19;181014;1260;43774;-88
2023/08/10 04:51:07;;;;;;;3.40;1.70;;;;;;;14.61;100.00;100681.31;181143;1260;43855;-88
2023/08/10 04:55:11;;;;;;;2.50;1.60;;;;;;;14.83;100.00;100683.83;180905;1259;58314;-88
2023/08/10 04:59:14;;;;;;;3.40;1.50;;;;;;;15.09;100.00;100688.36;180970;1261;43870;-88
2023/08/10 05:03:18;;;;;;;1.90;1.40;;;;;;;15.17;100.00;100685.80;180972;1260;44253;-87
2023/08/10 05:07:23;;;;;;;6.20;1.70;;;;;;;15.19;100.00;100683.29;180758;1260;264062;-87
2023/08/10 05:11:26;;;;;;;16.40;2.80;;;;;;;15.20;100.00;100684.64;181025;1260;43657;-88
2023/08/10 05:15:30;;;;;;;4.10;1.40;;;;;;;15.19;100.00;100689.52;181047;1262;58087;-88
2023/08/10 05:19:33;;;;;;;2.60;1.40;;;;;;;15.22;100.00;100697.68;181055;1259;43835;-88
2023/08/10 05:23:37;;;;;;;2.20;1.70;;;;;;;15.32;100.00;100701.71;181164;1260;43799;-88
2023/08/10 05:27:41;;;;;;;2.40;1.80;;;;;;;15.51;100.00;100703.29;180883;1260;43804;-88
2023/08/10 05:31:44;;;;;;;5.10;2.10;;;;;;;15.73;100.00;100699.23;181013;1260;44051;-88
2023/08/10 05:35:48;;;;;;;5.50;1.30;;;;;;;16.02;100.00;100703.11;180943;1260;59228;-88
2023/08/10 05:39:51;;;;;;;4.70;4.30;;;;;;;16.17;100.00;100702.52;181071;1259;43827;-88
2023/08/10 05:43:54;;;;;;;4.90;3.40;;;;;;;16.19;100.00;100695.55;180986;1259;43985;-88
2023/08/10 05:47:57;;;;;;;3.80;3.20;;;;;;;16.07;100.00;100694.95;181053;1260;43898;-88
2023/08/10 05:52:01;;;;;;;3.80;1.80;;;;;;;16.10;100.00;100694.22;180940;1259;44051;-88
2023/08/10 05:56:04;;;;;;;2.40;2.20;;;;;;;16.17;100.00;100693.92;180875;1260;58335;-88
2023/08/10 06:00:10;;;;;;;9.20;3.00;;;;;;;16.40;100.00;100698.25;180983;1260;43985;-88
2023/08/10 06:04:14;;;;;;;1.40;1.30;;;;;;;16.61;100.00;100701.79;180968;1258;43793;-88
2023/08/10 06:08:18;;;;;;;2.20;1.70;;;;;;;16.72;100.00;100699.39;180910;1259;44135;-88
2023/08/10 06:12:21;;;;;;;6.40;1.60;;;;;;;16.82;100.00;100699.95;180998;1260;43789;-88
2023/08/10 06:16:25;;;;;;;3.80;1.60;;;;;;;16.87;100.00;100700.92;180990;1261;60106;-88
2023/08/10 06:20:28;;;;;;;3.40;1.50;;;;;;;16.94;100.00;100703.40;180982;1261;44521;-88
2023/08/10 06:24:31;;;;;;;5.00;1.40;;;;;;;17.29;100.00;100703.30;181113;1259;43875;-88
2023/08/10 06:28:35;;;;;;;3.40;1.70;;;;;;;18.14;100.00;100702.98;181174;1260;43913;-88
2023/08/10 06:32:38;;;;;;;2.10;1.30;;;;;;;18.97;97.38;100702.34;181159;1260;44041;-88
2023/08/10 06:36:42;;;;;;;1.30;1.10;;;;;;;19.82;93.14;100700.11;181088;1258;58718;-88
2023/08/10 06:40:45;;;;;;;1.60;1.30;;;;;;;20.66;87.99;100698.34;181061;1259;44072;-88
2023/08/10 06:44:51;;;;;;;;;;;;;;;21.42;82.45;100692.73;181028;1259;43825;-88
2023/08/10 06:48:55;;;;;;;1.50;0.90;;;;;;;21.82;79.44;100697.06;181084;1260;43586;-88
2023/08/10 06:52:58;;;;;;;2.50;1.10;;;;;;;22.35;77.68;100694.30;181041;1258;44968;-88
2023/08/10 06:57:02;;;;;;;4.00;1.20;;;;;;;22.84;75.48;100690.39;180967;1260;59558;-88
2023/08/10 07:01:06;;;;;;;2.30;0.90;;;;;;;23.38;72.13;100684.66;180992;1259;43873;-88
2023/08/10 07:05:10;;;;;;;1.40;1.10;;;;;;;23.76;69.50;100685.83;180991;1260;43803;-88
2023/08/10 07:09:13;;;;;;;2.30;1.10;;;;;;;23.86;65.10;100687.64;181136;1260;44218;-86
2023/08/10 07:13:16;;;;;;;1.80;0.60;;;;;;;24.03;63.10;100689.30;181053;1259;44166;-85
2023/08/10 07:17:20;;;;;;;4.80;0.80;;;;;;;24.17;63.82;100691.77;180977;1259;59537;-85
2023/08/10 07:21:24;;;;;;;1.70;1.00;;;;;;;24.27;59.95;100694.75;181095;1259;44205;-86
2023/08/10 07:25:28;;;;;;;1.50;0.80;;;;;;;24.37;60.21;100704.52;181057;1259;43814;-85
2023/08/10 07:29:31;;;;;;;0.70;0.50;;;;;;;24.53;59.81;100707.41;181103;1259;43889;-85
2023/08/10 07:33:34;;;;;;;0.80;0.40;;;;;;;24.68;57.83;100705.56;181145;1260;44227;-84
2023/08/10 07:37:40;;;;;;;1.20;0.50;;;;;;;24.68;57.76;100706.41;181064;1258;57108;-86
2023/08/10 07:41:44;;;;;;;0.60;0.50;;;;;;;24.70;57.91;100708.59;181016;1260;43764;-86
2023/08/10 07:45:47;;;;;;;1.90;0.70;;;;;;;24.90;60.16;100703.73;181094;1259;43773;-85
2023/08/10 07:49:51;;;;;;;1.20;0.70;;;;;;;24.76;58.36;100705.34;181119;1259;43860;-85
2023/08/10 07:53:55;;;;;;;2.50;1.20;;;;;;;24.68;56.56;100702.77;181063;1258;43841;-85
2023/08/10 07:57:58;;;;;;;1.10;0.90;;;;;;;24.64;56.81;100699.05;181037;1259;60310;-85
2023/08/10 08:02:04;;;;;;;0.80;0.40;;;;;;;24.83;57.00;100694.53;180936;1259;43929;-85
2023/08/10 08:06:10;;;;;;;0.90;0.40;;;;;;;24.90;56.33;100696.71;181071;1260;43775;-85
2023/08/10 08:10:14;;;;;;;1.70;0.80;;;;;;;25.07;55.29;100693.71;181029;1259;43825;-86
2023/08/10 08:14:18;;;;;;;1.80;1.30;;;;;;;25.16;54.47;100696.75;181002;1259;43752;-85
2023/08/10 08:18:42;;;;;;;1.50;0.80;;;;;;;25.34;54.81;100691.80;181041;1259;59011;-86
2023/08/10 08:22:46;;;;;;;4.30;0.80;;;;;;;25.38;54.20;100689.28;181082;1259;43851;-85
2023/08/10 08:26:50;;;;;;;2.80;0.60;;;;;;;25.27;55.81;100690.73;181122;1257;43880;-85
2023/08/10 08:30:55;;;;;;;4.80;0.90;;;;;;;25.29;54.44;100690.90;181135;1258;43726;-85
2023/08/10 08:34:59;;;;;;;2.10;0.70;;;;;;;25.32;53.36;100686.45;181062;1258;43706;-85
2023/08/10 08:39:03;;;;;;;1.50;0.60;;;;;;;25.32;52.72;100687.66;181113;1258;60294;-85
2023/08/10 08:43:07;;;;;;;2.90;0.80;;;;;;;25.27;53.93;100688.55;181078;1258;44134;-85
2023/08/10 08:47:11;;;;;;;2.10;0.80;;;;;;;25.08;53.93;100690.08;181010;1258;43744;-85
2023/08/10 08:51:18;;;;;;;1.00;0.70;;;;;;;25.02;55.08;100689.00;180982;1259;44154;-86
2023/08/10 08:55:44;;;;;;;1.90;0.50;;;;;;;25.11;55.39;100683.90;181081;1259;43748;-85
2023/08/10 08:59:48;;;;;;;1.20;0.90;;;;;;;24.97;54.66;100684.69;181011;1259;60499;-85
2023/08/10 09:03:51;;;;;;;1.90;0.70;;;;;;;24.67;54.82;100682.02;181085;1259;43920;-85
2023/08/10 09:07:56;;;;;;;2.30;1.00;;;;;;;24.38;52.77;100686.27;181071;1259;44137;-85
2023/08/10 09:12:29;;;;;;;2.00;0.60;;;;;;;24.04;54.24;100686.64;181089;1260;44127;-85
2023/08/10 09:16:33;;;;;;;2.00;1.30;;;;;;;23.77;54.70;100683.27;181131;1259;44757;-85
2023/08/10 09:20:36;;;;;;;1.20;0.40;;;;;;;23.61;55.84;100687.27;181005;1259;57965;-85
2023/08/10 09:24:45;;;;;;;0.60;0.40;;;;;;;23.48;55.25;100680.66;181086;1258;43743;-85
2023/08/10 09:28:58;;;;;;;3.20;1.50;;;;;;;23.43;54.06;100683.19;181096;1259;43823;-85
2023/08/10 09:33:02;;;;;;;3.40;0.70;;;;;;;23.39;56.30;100684.67;180890;1259;44174;-85
2023/08/10 09:37:06;;;;;;;4.10;0.60;;;;;;;23.20;55.82;100682.83;180960;1259;43902;-85
2023/08/10 09:41:11;;;;;;;1.10;0.60;;;;;;;23.07;55.78;100689.24;181039;1260;59336;-85
2023/08/10 09:45:17;;;;;;;0.60;0.30;;;;;;;22.99;56.07;100691.91;181244;1258;44116;-85
2023/08/10 09:49:20;;;;;;;2.00;0.70;;;;;;;23.09;57.51;100686.96;180962;1259;44204;-85
2023/08/10 09:53:25;;;;;;;4.20;1.00;;;;;;;23.18;57.54;100690.87;181066;1259;43783;-84
2023/08/10 09:57:29;;;;;;;3.30;0.70;;;;;;;23.29;57.18;100685.02;181071;1259;43679;-85
2023/08/10 10:01:34;;;;;;;2.80;0.50;;;;;;;23.47;54.87;100682.27;180972;1259;59559;-85
2023/08/10 10:05:38;;;;;;;0.80;0.70;;;;;;;23.76;54.84;100683.77;181122;1259;43879;-85
2023/08/10 10:09:43;;;;;;;3.40;1.10;;;;;;;23.77;57.29;100685.58;180957;1259;43970;-85
2023/08/10 10:13:47;;;;;;;3.20;1.10;;;;;;;23.80;54.55;100680.70;180933;1259;43794;-85
2023/08/10 10:17:52;;;;;;;1.10;0.70;;;;;;;23.88;56.50;100686.85;181061;1259;44127;-85
2023/08/10 10:21:57;;;;;;;0.70;0.60;;;;;;;23.80;54.23;100686.16;180941;1259;57940;-85
2023/08/10 10:26:02;;;;;;;4.10;0.80;;;;;;;23.65;54.16;100683.98;181008;1259;44189;-84
2023/08/10 10:30:16;;;;;;;2.90;0.70;;;;;;;23.61;52.69;100682.59;181061;1259;43886;-85
2023/08/10 10:34:20;;;;;;;2.20;0.70;;;;;;;23.59;51.82;100678.98;180965;1259;43826;-84
2023/08/10 10:38:24;;;;;;;2.50;0.60;;;;;;;23.72;51.50;100675.36;180970;1259;43863;-85
2023/08/10 10:42:27;;;;;;;1.30;0.50;;;;;;;23.93;50.32;100672.98;181003;1259;59240;-85
2023/08/10 10:46:37;;;;;;;1.10;0.60;;;;;;;24.14;50.12;100672.57;180909;1259;44124;-85
2023/08/10 10:50:41;;;;;;;1.50;0.70;;;;;;;24.43;49.32;100672.68;181062;1258;43877;-85
2023/08/10 10:54:45;;;;;;;1.20;0.30;;;;;;;24.74;49.60;100669.17;181039;1259;44029;-85
2023/08/10 10:58:50;;;;;;;1.50;0.80;;;;;;;24.60;49.41;100670.26;181150;1259;44091;-85
2023/08/10 11:02:54;;;;;;;3.30;1.20;;;;;;;24.30;49.25;100672.80;181069;1259;59363;-86
2023/08/10 11:06:59;;;;;;;2.10;0.90;;;;;;;24.13;50.00;100668.89;180987;1259;43886;-84
2023/08/10 11:11:02;;;;;;;0.60;0.60;;;;;;;23.93;50.20;100671.79;181156;1258;43956;-84
2023/08/10 11:15:08;;;;;;;1.10;0.60;;;;;;;23.65;51.66;100670.48;181171;1257;43990;-85
2023/08/10 11:19:13;;;;;;;1.00;0.50;;;;;;;23.44;53.05;100671.75;181060;1258;44044;-85
2023/08/10 11:23:16;;;;;;;4.80;2.00;;;;;;;23.34;53.73;100670.95;181067;1258;59493;-84
2023/08/10 11:27:20;;;;;;;2.10;1.20;;;;;;;23.31;54.64;100670.30;181027;1259;43826;-85
2023/08/10 11:31:24;;;;;;;6.40;2.00;;;;;;;23.31;54.62;100666.63;181144;1259;43731;-85
2023/08/10 11:35:27;;;;;;;2.60;0.50;;;;;;;23.42;55.97;100663.05;180961;1258;43949;-85
2023/08/10 11:39:30;;;;;;;0.80;0.50;;;;;;;23.54;53.30;100663.80;180955;1259;43841;-85
2023/08/10 11:43:34;;;;;;;1.70;0.60;;;;;;;23.72;51.78;100658.57;181041;1260;57468;-86
2023/08/10 11:47:42;;;;;;;15.80;9.30;;;;;;;23.88;53.32;100653.42;181192;1259;43856;-85
2023/08/10 11:51:48;;;;;;;2.90;1.50;;;;;;;24.25;52.26;100649.95;180938;1259;43972;-85
2023/08/10 11:55:53;;;;;;;4.30;0.90;;;;;;;24.66;48.99;100642.40;181148;1259;44198;-85
2023/08/10 11:59:57;;;;;;;2.40;1.70;;;;;;;24.89;49.11;100640.96;181015;1259;43788;-85
2023/08/10 12:04:00;;;;;;;1.60;1.10;;;;;;;24.83;51.25;100641.09;181013;1259;59433;-85
2023/08/10 12:08:11;;;;;;;2.60;1.30;;;;;;;24.75;53.96;100643.98;181089;1259;43933;-85
2023/08/10 12:12:15;;;;;;;1.20;0.50;;;;;;;24.61;48.39;100637.71;181069;1258;43979;-85
2023/08/10 12:16:22;;;;;;;3.90;0.80;;;;;;;24.65;50.98;100633.10;181317;1257;43894;-83
2023/08/10 12:20:26;;;;;;;4.70;1.40;;;;;;;24.76;51.85;100634.36;181474;1256;43793;-83
2023/08/10 12:24:30;;;;;;;1.50;0.90;;;;;;;24.99;48.16;100620.17;181358;1256;60043;-83
2023/08/10 12:28:33;;;;;;;1.50;1.00;;;;;;;25.10;49.94;100619.01;181581;1257;44209;-84
2023/08/10 12:32:37;;;;;;;1.30;0.50;;;;;;;24.94;49.46;100623.96;181484;1256;44001;-83
2023/08/10 12:36:41;;;;;;;1.10;0.80;;;;;;;24.77;49.48;100623.23;181489;1256;43967;-83
2023/08/10 12:40:45;;;;;;;0.40;0.30;;;;;;;24.64;49.00;100616.25;181600;1256;43058;-83
2023/08/10 12:44:48;;;;;;;2.80;0.50;;;;;;;24.66;50.07;100613.06;181456;1256;57945;-84
2023/08/10 12:48:52;;;;;;;1.40;0.70;;;;;;;24.71;53.03;100616.02;181641;1256;43877;-83
2023/08/10 12:52:56;;;;;;;2.70;1.00;;;;;;;24.67;49.09;100614.86;181636;1256;43733;-83
2023/08/10 12:56:59;;;;;;;2.00;0.40;;;;;;;24.67;49.07;100618.46;181599;1256;43635;-84
2023/08/10 13:01:03;;;;;;;1.60;0.60;;;;;;;24.67;48.23;100618.76;181534;1257;49257;-84
2023/08/10 13:05:07;;;;;;;2.30;0.80;;;;;;;24.62;50.35;100621.55;181347;1257;57920;-84
2023/08/10 13:09:11;;;;;;;1.30;0.60;;;;;;;24.64;56.69;100621.84;181363;1256;43785;-84
2023/08/10 13:13:15;;;;;;;1.00;0.60;;;;;;;24.55;54.61;100623.45;181224;1257;43675;-84
2023/08/10 13:17:19;;;;;;;7.90;1.70;;;;;;;24.52;55.50;100619.85;181318;1257;43650;-84
2023/08/10 13:21:23;;;;;;;3.30;0.60;;;;;;;24.55;56.56;100620.55;181407;1257;43088;-84
2023/08/10 13:25:27;;;;;;;3.10;0.70;;;;;;;24.59;58.14;100618.89;181358;1256;58243;-84
2023/08/10 13:29:32;;;;;;;1.60;0.40;;;;;;;24.57;56.24;100614.67;181334;1257;44236;-84
2023/08/10 13:33:36;;;;;;;2.70;0.60;;;;;;;24.61;56.25;100608.89;181322;1256;44104;-83
2023/08/10 13:37:41;;;;;;;1.40;0.50;;;;;;;24.60;53.24;100609.89;181423;1257;44259;-82
2023/08/10 13:41:45;;;;;;;1.90;1.10;;;;;;;24.54;53.53;100613.44;181336;1256;43106;-84
2023/08/10 13:45:55;;;;;;;2.80;1.20;;;;;;;24.49;56.23;100614.50;181319;1256;59463;-83
2023/08/10 13:49:59;;;;;;;0.80;0.60;;;;;;;24.48;58.50;100617.64;181308;1256;43641;-83
2023/08/10 13:54:05;;;;;;;1.00;0.90;;;;;;;24.57;54.89;100613.73;181325;1258;44073;-83
2023/08/10 13:58:10;;;;;;;2.10;0.60;;;;;;;24.67;49.02;100607.37;181389;1257;44013;-83
2023/08/10 14:02:15;;;;;;;1.80;0.80;;;;;;;24.86;47.23;100602.80;181205;1256;43806;-83
2023/08/10 14:06:20;;;;;;;0.50;0.30;;;;;;;25.05;46.61;100599.48;181314;1257;60052;-83
2023/08/10 14:10:24;;;;;;;1.00;0.40;;;;;;;25.26;45.60;100597.73;181594;1257;43749;-84
2023/08/10 14:14:29;;;;;;;1.60;0.40;;;;;;;25.47;45.24;100595.79;181337;1257;43819;-84
2023/08/10 14:18:34;;;;;;;0.60;0.40;;;;;;;25.63;44.58;100601.34;181377;1256;44189;-84
2023/08/10 14:22:38;;;;;;;0.50;0.40;;;;;;;25.66;48.03;100596.71;181301;1257;43743;-84
2023/08/10 14:26:42;;;;;;;1.10;0.70;;;;;;;25.59;45.71;100588.13;181324;1257;59906;-84
2023/08/10 14:30:46;;;;;;;2.70;0.70;;;;;;;25.52;45.74;100591.58;181330;1257;44070;-84
2023/08/10 14:34:52;;;;;;;1.50;0.60;;;;;;;25.77;44.24;100583.99;181365;1257;43975;-84
2023/08/10 14:38:56;;;;;;;2.40;1.30;;;;;;;26.00;46.22;100584.00;181315;1257;43853;-85
2023/08/10 14:43:01;;;;;;;2.60;0.60;;;;;;;26.15;46.40;100580.91;181403;1257;44141;-84
2023/08/10 14:47:08;;;;;;;3.60;1.00;;;;;;;26.19;44.76;100586.36;181359;1259;58008;-84
2023/08/10 14:51:12;;;;;;;2.30;0.50;;;;;;;26.20;45.14;100580.38;181457;1256;43929;-84
2023/08/10 14:55:16;;;;;;;2.50;0.60;;;;;;;26.00;47.46;100582.31;181408;1257;43397;-84
2023/08/10 14:59:25;;;;;;;6.90;1.10;;;;;;;26.03;47.85;100582.77;181346;1256;44483;-84
2023/08/10 15:03:28;;;;;;;5.10;0.80;;;;;;;25.82;45.26;100580.35;181415;1256;43790;-84
2023/08/10 15:07:32;;;;;;;1.60;0.90;;;;;;;25.69;44.65;100579.98;181352;1257;58746;-84
2023/08/10 15:11:37;;;;;;;4.00;1.30;;;;;;;25.87;43.58;100582.42;181347;1257;43832;-84
2023/08/10 15:15:45;;;;;;;0.80;0.60;;;;;;;26.05;44.05;100582.27;181342;1257;44075;-84
2023/08/10 15:19:49;;;;;;;0.60;0.40;;;;;;;26.16;42.85;100578.72;181376;1256;43908;-84
2023/08/10 15:23:53;;;;;;;2.00;0.40;;;;;;;26.17;42.82;100579.02;181401;1256;43653;-84
2023/08/10 15:27:57;;;;;;;3.70;1.30;;;;;;;26.06;48.73;100578.83;181330;1257;58433;-84
2023/08/10 15:32:00;;;;;;;1.40;0.40;;;;;;;25.81;49.28;100580.61;181342;1257;44194;-84
2023/08/10 15:36:06;;;;;;;0.40;0.30;;;;;;;25.51;47.85;100579.56;181404;1256;44045;-85
2023/08/10 15:40:12;;;;;;;5.90;1.00;;;;;;;25.33;48.39;100580.23;181315;1256;43674;-84
2023/08/10 15:44:16;;;;;;;2.80;1.10;;;;;;;25.18;51.18;100583.64;181193;1257;43907;-85
2023/08/10 15:48:19;;;;;;;3.50;1.40;;;;;;;25.00;54.38;100584.67;181359;1256;58019;-84
2023/08/10 15:52:23;;;;;;;2.50;0.50;;;;;;;24.83;56.21;100584.56;181419;1256;43860;-84
2023/08/10 15:56:27;;;;;;;5.30;1.10;;;;;;;24.61;51.31;100588.75;181396;1256;43803;-84
2023/08/10 16:00:31;;;;;;;1.10;0.70;;;;;;;24.43;53.59;100595.39;181390;1257;43703;-85
2023/08/10 16:04:34;;;;;;;3.00;0.90;;;;;;;24.15;52.91;100588.09;181319;1256;43575;-85
2023/08/10 16:08:43;;;;;;;1.00;0.90;;;;;;;23.97;52.67;100586.96;181297;1256;58111;-84
2023/08/10 16:12:47;;;;;;;1.80;1.10;;;;;;;23.81;50.35;100584.92;181350;1256;43822;-84
2023/08/10 16:16:54;;;;;;;1.20;0.70;;;;;;;23.63;53.70;100587.70;181378;1256;44200;-84
2023/08/10 16:21:05;;;;;;;1.40;0.50;;;;;;;23.59;57.78;100588.85;181244;1256;45954;-85
2023/08/10 16:25:09;;;;;;;2.00;1.20;;;;;;;23.59;57.50;100592.58;181347;1257;43724;-84
2023/08/10 16:29:14;;;;;;;1.20;0.30;;;;;;;23.61;57.28;100595.46;181277;1257;58157;-84
2023/08/10 16:33:21;;;;;;;3.00;0.70;;;;;;;23.61;58.07;100595.52;181376;1256;44266;-84
2023/08/10 16:37:33;;;;;;;9.70;1.20;;;;;;;23.60;58.66;100597.41;181247;1257;46119;-84
2023/08/10 16:41:37;;;;;;;1.40;0.60;;;;;;;23.66;58.68;100594.17;181335;1256;43833;-84
2023/08/10 16:45:44;;;;;;;1.00;0.70;;;;;;;23.76;53.74;100595.95;181304;1259;44213;-84
2023/08/10 16:49:58;;;;;;;0.60;0.40;;;;;;;23.88;51.83;100599.14;181451;1257;58498;-84
2023/08/10 16:54:03;;;;;;;1.80;1.00;;;;;;;23.98;49.73;100601.58;181342;1256;44027;-84
2023/08/10 16:58:10;;;;;;;5.00;1.70;;;;;;;24.05;49.68;100599.86;181321;1256;43185;-84
2023/08/10 17:02:17;;;;;;;0.90;0.70;;;;;;;24.17;48.62;100601.79;181471;1256;44322;-85
2023/08/10 17:06:21;;;;;;;2.20;0.80;;;;;;;24.23;46.98;100599.55;181128;1257;240964;-85
2023/08/10 17:10:26;;;;;;;1.30;0.60;;;;;;;24.19;48.47;100600.95;181369;1257;58133;-84
2023/08/10 17:14:30;;;;;;;0.80;0.40;;;;;;;24.09;50.60;100607.19;181254;1256;43961;-85
2023/08/10 17:18:34;;;;;;;5.70;1.00;;;;;;;24.00;52.87;100604.94;181330;1257;45150;-84
2023/08/10 17:22:39;;;;;;;1.90;0.70;;;;;;;23.94;52.74;100606.84;181315;1256;43775;-84
2023/08/10 17:26:47;;;;;;;2.80;1.10;;;;;;;23.84;54.25;100609.34;181379;1258;44115;-85
2023/08/10 17:30:51;;;;;;;2.40;0.80;;;;;;;23.72;54.44;100610.42;181286;1256;58468;-85
2023/08/10 17:34:56;;;;;;;1.20;0.70;;;;;;;23.58;54.21;100610.65;181314;1257;44330;-84
2023/08/10 17:39:03;;;;;;;5.00;1.20;;;;;;;23.40;55.92;100610.52;181302;1256;43736;-84
2023/08/10 17:43:07;;;;;;;1.80;0.80;;;;;;;23.16;56.23;100613.88;181277;1257;43954;-84
2023/08/10 17:47:11;;;;;;;2.10;1.40;;;;;;;22.98;56.15;100618.21;181328;1256;43139;-84
2023/08/10 17:51:15;;;;;;;3.20;2.70;;;;;;;22.82;57.66;100614.83;181212;1256;59384;-84
2023/08/10 17:55:21;;;;;;;10.90;3.50;;;;;;;22.64;58.51;100620.88;181238;1256;43803;-84
2023/08/10 17:59:25;;;;;;;5.90;3.30;;;;;;;22.49;59.33;100624.14;181336;1256;43878;-85
2023/08/10 18:03:31;;;;;;;5.40;4.40;;;;;;;22.32;60.56;100626.56;181586;1257;44051;-84
2023/08/10 18:07:38;;;;;;;5.50;3.50;;;;;;;22.14;60.44;100630.36;181261;1256;43852;-84
2023/08/10 18:11:42;;;;;;;9.70;5.30;;;;;;;21.95;61.66;100636.44;181353;1257;59296;-84
2023/08/10 18:15:45;;;;;;;14.50;8.40;;;;;;;21.75;62.23;100636.77;181283;1256;44152;-85
2023/08/10 18:19:49;;;;;;;9.10;5.30;;;;;;;21.52;62.29;100637.00;181270;1257;44123;-85
2023/08/10 18:23:52;;;;;;;11.10;7.40;;;;;;;21.31;65.85;100637.92;181348;1256;43928;-85
2023/08/10 18:27:58;;;;;;;13.20;6.30;;;;;;;21.09;63.61;100639.20;181207;1257;43945;-84
2023/08/10 18:32:02;;;;;;;12.00;4.20;;;;;;;20.87;64.41;100645.58;181357;1256;59023;-84
2023/08/10 18:36:06;;;;;;;6.30;3.40;;;;;;;20.63;65.23;100651.96;181193;1258;44053;-85
2023/08/10 18:40:11;;;;;;;5.80;2.90;;;;;;;20.38;67.13;100658.30;181169;1257;44050;-86